createdAt,value
2022-11-28T00:01:31.803Z,100291.56
2022-11-28T00:03:59.920Z,100294.28
2022-11-28T00:06:28.647Z,100300.47
2022-11-28T00:08:58.704Z,100300.56
2022-11-28T00:11:26.596Z,100303.28
2022-11-28T00:13:55.378Z,100297.28
2022-11-28T00:16:25.141Z,100301.56
2022-11-28T00:18:54.355Z,100304.06
2022-11-28T00:21:22.648Z,100300.50
2022-11-28T00:23:51.269Z,100291.09
2022-11-28T00:26:21.548Z,100290.25
2022-11-28T00:28:49.902Z,100288.59
2022-11-28T00:31:19.894Z,100289.41
2022-11-28T00:33:49.457Z,100283.47
2022-11-28T00:36:17.797Z,100286.09
2022-11-28T00:38:46.187Z,100280.94
2022-11-28T00:41:15.885Z,100283.56
2022-11-28T00:43:44.883Z,100284.47
2022-11-28T00:46:14.006Z,100282.66
2022-11-28T00:48:41.983Z,100286.28
2022-11-28T00:51:13.221Z,100286.28
2022-11-28T00:53:42.482Z,100281.22
2022-11-28T00:56:11.924Z,100280.50
2022-11-28T00:58:40.825Z,100286.69
2022-11-28T01:01:10.917Z,100279.84
2022-11-28T01:03:39.456Z,100285.94
2022-11-28T01:06:08.463Z,100280.94
2022-11-28T01:08:38.461Z,100272.34
2022-11-28T01:11:12.987Z,100265.41
2022-11-28T01:13:41.295Z,100271.41
2022-11-28T01:16:09.799Z,100271.38
2022-11-28T01:18:38.192Z,100273.19
2022-11-28T01:21:07.141Z,100272.19
2022-11-28T01:23:35.660Z,100269.44
2022-11-28T01:26:08.383Z,100270.91
2022-11-28T01:28:36.909Z,100265.59
2022-11-28T01:31:06.929Z,100256.94
2022-11-28T01:33:35.206Z,100252.63
2022-11-28T01:36:04.037Z,100261.28
2022-11-28T01:38:32.065Z,100261.47
2022-11-28T01:40:59.806Z,100245.06
2022-11-28T01:43:29.026Z,100241.53
2022-11-28T01:45:57.196Z,100229.59
2022-11-28T01:48:28.457Z,100255.75
2022-11-28T01:51:06.775Z,100243.72
2022-11-28T01:53:38.101Z,100234.25
2022-11-28T01:56:09.989Z,100219.44
2022-11-28T01:58:42.674Z,100211.53
2022-11-28T02:01:12.243Z,100207.97
2022-11-28T02:03:44.039Z,100200.19
2022-11-28T02:06:14.385Z,100204.41
2022-11-28T02:08:42.331Z,100198.47
2022-11-28T02:11:30.605Z,100193.25
2022-11-28T02:14:12.137Z,100194.94
2022-11-28T02:16:50.312Z,100197.50
2022-11-28T02:19:59.172Z,100195.81
2022-11-28T02:22:33.572Z,100195.03
2022-11-28T02:25:38.157Z,100194.28
2022-11-28T02:28:40.906Z,100194.53
2022-11-28T02:31:28.776Z,100201.44
2022-11-28T02:34:02.849Z,100204.16
2022-11-28T02:36:34.953Z,100207.66
2022-11-28T02:39:14.929Z,100205.13
2022-11-28T02:41:47.317Z,100200.91
2022-11-28T02:44:18.884Z,100193.25
2022-11-28T02:46:53.496Z,100199.19
2022-11-28T02:49:28.684Z,100197.25
2022-11-28T02:52:00.431Z,100186.13
2022-11-28T02:54:29.834Z,100175.81
2022-11-28T02:56:57.528Z,100174.13
2022-11-28T02:59:45.444Z,100171.47
2022-11-28T03:02:16.024Z,100170.59
2022-11-28T03:04:54.716Z,100177.53
2022-11-28T03:07:37.412Z,100168.97
2022-11-28T03:10:15.333Z,100182.88
2022-11-28T03:12:57.227Z,100180.28
2022-11-28T03:15:33.348Z,100181.25
2022-11-28T03:18:05.997Z,100175.16
2022-11-28T03:20:46.180Z,100179.41
2022-11-28T03:23:17.824Z,100167.41
2022-11-28T03:25:57.240Z,100165.78
2022-11-28T03:28:30.853Z,100164.91
2022-11-28T03:31:03.358Z,100159.84
2022-11-28T03:33:35.175Z,100167.66
2022-11-28T03:36:09.602Z,100168.44
2022-11-28T03:38:42.588Z,100159.88
2022-11-28T03:41:15.509Z,100153.94
2022-11-28T03:43:50.531Z,100151.38
2022-11-28T03:46:21.129Z,100149.63
2022-11-28T03:48:53.257Z,100151.34
2022-11-28T03:51:27.650Z,100138.53
2022-11-28T03:54:00.646Z,100144.41
2022-11-28T03:56:37.434Z,100142.69
2022-11-28T03:59:10.936Z,100143.53
2022-11-28T04:01:52.756Z,100147.78
2022-11-28T04:04:30.113Z,100148.69
2022-11-28T04:07:06.839Z,100153.84
2022-11-28T04:09:40.701Z,100145.28
2022-11-28T04:12:15.774Z,100149.63
2022-11-28T04:14:48.303Z,100149.63
2022-11-28T04:17:20.869Z,100152.22
2022-11-28T04:19:53.089Z,100157.38
2022-11-28T04:22:28.270Z,100153.06
2022-11-28T04:25:00.793Z,100145.41
2022-11-28T04:27:32.869Z,100141.91
2022-11-28T04:30:04.118Z,100137.72
2022-11-28T04:32:37.109Z,100136.00
2022-11-28T04:35:10.565Z,100133.53
2022-11-28T04:37:41.910Z,100132.63
2022-11-28T04:40:12.059Z,100128.34
2022-11-28T04:42:48.693Z,100132.66
2022-11-28T04:45:25.454Z,100149.06
2022-11-28T04:47:53.472Z,100139.84
2022-11-28T04:50:24.659Z,100130.66
2022-11-28T04:52:57.006Z,100127.28
2022-11-28T04:55:31.251Z,100118.72
2022-11-28T04:58:08.379Z,100120.19
2022-11-28T05:00:37.529Z,100121.06
2022-11-28T05:03:06.372Z,100122.00
2022-11-28T05:05:44.555Z,100119.41
2022-11-28T05:08:14.163Z,100120.38
2022-11-28T05:10:42.130Z,100111.91
2022-11-28T05:13:09.965Z,100115.38
2022-11-28T05:15:37.723Z,100112.72
2022-11-28T05:18:05.898Z,100115.22
2022-11-28T05:20:33.994Z,100110.78
2022-11-28T05:23:01.873Z,100115.03
2022-11-28T05:25:31.063Z,100114.97
2022-11-28T05:27:58.883Z,100119.28
2022-11-28T05:30:27.761Z,100108.16
2022-11-28T05:32:55.600Z,100122.00
2022-11-28T05:35:23.416Z,100113.50
2022-11-28T05:37:51.161Z,100112.78
2022-11-28T05:40:18.936Z,100110.09
2022-11-28T05:42:48.285Z,100109.34
2022-11-28T05:45:15.936Z,100115.53
2022-11-28T05:47:43.582Z,100121.69
2022-11-28T05:50:11.879Z,100118.34
2022-11-28T05:52:39.567Z,100120.97
2022-11-28T05:55:08.449Z,100119.06
2022-11-28T05:57:36.472Z,100117.25
2022-11-28T06:00:06.947Z,100106.94
2022-11-28T06:02:39.515Z,100103.50
2022-11-28T06:05:34.830Z,100094.00
2022-11-28T06:07:55.768Z,100094.94
2022-11-28T06:10:24.172Z,100107.00
2022-11-28T06:12:51.972Z,100112.94
2022-11-28T06:15:21.111Z,100109.44
2022-11-28T06:17:48.721Z,100107.75
2022-11-28T06:20:16.556Z,100111.03
2022-11-28T06:22:44.237Z,100104.81
2022-11-28T06:25:11.899Z,100100.38
2022-11-28T06:27:39.651Z,100096.00
2022-11-28T06:30:08.747Z,100102.84
2022-11-28T06:32:38.207Z,100103.63
2022-11-28T06:35:06.897Z,100107.09
2022-11-28T06:37:35.034Z,100107.94
2022-11-28T06:40:02.890Z,100101.91
2022-11-28T06:42:30.601Z,100102.78
2022-11-28T06:44:58.306Z,100109.66
2022-11-28T06:47:26.471Z,100105.38
2022-11-28T06:49:55.556Z,100107.16
2022-11-28T06:52:23.269Z,100108.84
2022-11-28T06:54:51.030Z,100110.50
2022-11-28T06:57:18.782Z,100110.44
2022-11-28T06:59:46.452Z,100117.34
2022-11-28T07:02:14.335Z,100113.94
2022-11-28T07:04:42.190Z,100113.06
2022-11-28T07:07:16.056Z,100116.53
2022-11-28T07:09:44.702Z,100120.72
2022-11-28T07:12:12.677Z,100120.78
2022-11-28T07:14:40.405Z,100121.59
2022-11-28T07:17:08.581Z,100129.28
2022-11-28T07:19:36.807Z,100134.44
2022-11-28T07:22:04.775Z,100128.44
2022-11-28T07:24:33.821Z,100130.94
2022-11-28T07:27:01.609Z,100135.13
2022-11-28T07:29:35.881Z,100137.53
2022-11-28T07:32:05.109Z,100140.13
2022-11-28T07:34:33.175Z,100141.72
2022-11-28T07:37:00.957Z,100137.38
2022-11-28T07:39:28.965Z,100135.66
2022-11-28T07:41:58.036Z,100136.44
2022-11-28T07:44:25.767Z,100130.47
2022-11-28T07:46:53.835Z,100122.78
2022-11-28T07:49:21.568Z,100131.34
2022-11-28T07:51:49.265Z,100125.31
2022-11-28T07:54:16.989Z,100120.91
2022-11-28T07:57:11.820Z,100122.69
2022-11-28T07:59:34.152Z,100126.06
2022-11-28T08:02:01.943Z,100118.31
2022-11-28T08:04:30.078Z,100115.44
2022-11-28T08:06:59.196Z,100115.47
2022-11-28T08:09:27.930Z,100112.00
2022-11-28T08:11:55.756Z,100117.84
2022-11-28T08:14:23.492Z,100115.25
2022-11-28T08:16:53.277Z,100120.47
2022-11-28T08:19:24.517Z,100124.69
2022-11-28T08:21:52.698Z,100128.13
2022-11-28T08:24:20.616Z,100129.75
2022-11-28T08:26:48.336Z,100126.06
2022-11-28T08:29:16.195Z,100129.69
2022-11-28T08:31:43.908Z,100130.59
2022-11-28T08:34:13.099Z,100131.47
2022-11-28T08:36:43.283Z,100130.72
2022-11-28T08:39:27.547Z,100128.06
2022-11-28T08:41:58.072Z,100127.06
2022-11-28T08:44:26.192Z,100126.84
2022-11-28T08:46:54.796Z,100132.06
2022-11-28T08:49:23.900Z,100126.84
2022-11-28T08:51:51.968Z,100126.63
2022-11-28T08:54:20.811Z,100119.75
2022-11-28T08:56:48.963Z,100119.75
2022-11-28T08:59:16.652Z,100113.63
2022-11-28T09:01:44.482Z,100119.63
2022-11-28T09:04:12.292Z,100119.53
2022-11-28T09:06:42.008Z,100122.16
2022-11-28T09:09:10.114Z,100116.19
2022-11-28T09:11:38.010Z,100122.03
2022-11-28T09:14:06.294Z,100112.44
2022-11-28T09:16:34.328Z,100113.13
2022-11-28T09:19:02.172Z,100115.59
2022-11-28T09:21:30.346Z,100112.06
2022-11-28T09:23:59.950Z,100113.56
2022-11-28T09:26:27.862Z,100117.84
2022-11-28T09:28:55.678Z,100118.06
2022-11-28T09:31:23.668Z,100099.78
2022-11-28T09:33:51.451Z,100099.78
2022-11-28T09:36:21.745Z,100099.59
2022-11-28T09:38:50.176Z,100106.91
2022-11-28T09:41:32.986Z,100102.09
2022-11-28T09:44:04.772Z,100103.47
2022-11-28T09:46:37.086Z,100107.13
2022-11-28T09:49:25.769Z,100098.59
2022-11-28T09:51:58.728Z,100096.69
2022-11-28T09:54:34.755Z,100098.66
2022-11-28T09:57:09.898Z,100102.72
2022-11-28T09:59:37.701Z,100098.59
2022-11-28T10:02:19.647Z,100100.84
2022-11-28T10:04:54.227Z,100101.13
2022-11-28T10:07:32.083Z,100103.75
2022-11-28T10:10:09.098Z,100105.41
2022-11-28T10:12:51.879Z,100109.50
2022-11-28T10:15:34.401Z,100100.97
2022-11-28T10:18:16.266Z,100098.25
2022-11-28T10:20:46.644Z,100098.13
2022-11-28T10:23:21.103Z,100100.66
2022-11-28T10:25:54.679Z,100100.38
2022-11-28T10:28:27.500Z,100098.75
2022-11-28T10:31:02.632Z,100104.09
2022-11-28T10:33:35.198Z,100100.56
2022-11-28T10:36:04.339Z,100089.16
2022-11-28T10:38:36.811Z,100092.47
2022-11-28T10:41:13.531Z,100096.63
2022-11-28T10:43:49.728Z,100091.31
2022-11-28T10:46:31.292Z,100088.69
2022-11-28T10:49:09.152Z,100085.34
2022-11-28T10:51:49.792Z,100090.97
2022-11-28T10:54:34.330Z,100086.78
2022-11-28T10:57:10.063Z,100084.13
2022-11-28T10:59:55.541Z,100083.22
2022-11-28T11:02:32.836Z,100092.56
2022-11-28T11:05:00.763Z,100095.13
2022-11-28T11:07:30.648Z,100090.81
2022-11-28T11:10:03.886Z,100078.53
2022-11-28T11:12:33.109Z,100072.53
2022-11-28T11:15:16.950Z,100064.78
2022-11-28T11:17:44.728Z,100066.59
2022-11-28T11:20:33.625Z,100061.00
2022-11-28T11:23:04.408Z,100065.56
2022-11-28T11:25:33.561Z,100060.28
2022-11-28T11:28:05.533Z,100061.63
2022-11-28T11:30:38.477Z,100062.63
2022-11-28T11:33:14.850Z,100056.31
2022-11-28T11:35:44.955Z,100053.03
2022-11-28T11:38:18.977Z,100042.59
2022-11-28T11:40:47.108Z,100043.69
2022-11-28T11:43:27.698Z,100046.25
2022-11-28T11:46:12.053Z,100048.00
2022-11-28T11:48:42.026Z,100048.06
2022-11-28T11:51:23.814Z,100047.25
2022-11-28T11:54:02.350Z,100044.28
2022-11-28T11:56:33.427Z,100049.59
2022-11-28T11:59:03.888Z,100051.16
2022-11-28T12:01:34.585Z,100038.53
2022-11-28T12:04:23.717Z,100040.03
2022-11-28T12:06:56.685Z,100038.28
2022-11-28T12:09:31.050Z,100032.38
2022-11-28T12:12:06.001Z,100024.59
2022-11-28T12:14:36.252Z,100027.22
2022-11-28T12:17:47.287Z,100018.50
2022-11-28T12:20:27.153Z,100019.31
2022-11-28T12:23:06.136Z,100013.28
2022-11-28T12:25:40.790Z,100013.16
2022-11-28T12:28:22.284Z,100004.59
2022-11-28T12:30:59.544Z,100000.38
2022-11-28T12:33:48.697Z,99989.00
2022-11-28T12:36:23.433Z,99986.44
2022-11-28T12:39:04.244Z,99992.63
2022-11-28T12:41:52.103Z,99991.59
2022-11-28T12:44:29.210Z,99992.53
2022-11-28T12:47:03.845Z,99984.69
2022-11-28T12:49:41.819Z,99984.66
2022-11-28T12:52:24.768Z,99985.69
2022-11-28T12:55:13.699Z,99980.63
2022-11-28T12:57:49.798Z,99983.09
2022-11-28T13:00:21.254Z,99983.91
2022-11-28T13:03:05.283Z,99982.13
2022-11-28T13:05:46.075Z,99972.41
2022-11-28T13:08:47.965Z,99973.97
2022-11-28T13:11:31.195Z,99972.34
2022-11-28T13:14:06.118Z,99970.41
2022-11-28T13:16:43.781Z,99967.00
2022-11-28T13:19:22.484Z,99960.94
2022-11-28T13:22:01.591Z,99964.38
2022-11-28T13:24:34.942Z,99960.06
2022-11-28T13:27:13.091Z,99955.75
2022-11-28T13:29:47.118Z,99946.16
2022-11-28T13:32:21.911Z,99954.78
2022-11-28T13:34:50.329Z,99946.72
2022-11-28T13:40:21.250Z,99958.84
2022-11-28T13:43:07.134Z,99962.25
2022-11-28T13:45:39.220Z,99957.03
2022-11-28T13:51:32.295Z,99955.25
2022-11-28T13:54:46.203Z,99958.72
2022-11-28T13:57:30.145Z,99952.75
2022-11-28T14:00:03.896Z,99950.13
2022-11-28T14:02:45.496Z,99946.59
2022-11-28T14:05:26.981Z,99952.56
2022-11-28T14:07:56.290Z,99956.19
2022-11-28T14:10:40.511Z,99948.38
2022-11-28T14:13:26.600Z,99953.53
2022-11-28T14:16:07.880Z,99951.06
2022-11-28T14:18:57.705Z,99953.88
2022-11-28T14:21:34.136Z,99956.28
2022-11-28T14:24:14.045Z,99959.63
2022-11-28T14:26:42.997Z,99951.88
2022-11-28T14:29:23.417Z,99949.34
2022-11-28T14:32:21.824Z,99942.34
2022-11-28T14:34:44.142Z,99948.38
2022-11-28T14:37:57.736Z,99939.78
2022-11-28T14:41:05.982Z,99949.28
2022-11-28T14:43:36.247Z,99949.28
2022-11-28T14:46:33.324Z,99951.88
2022-11-28T14:49:19.484Z,99949.28
2022-11-28T14:52:38.868Z,99949.38
2022-11-28T14:55:18.804Z,99954.53
2022-11-28T14:57:58.842Z,99947.72
2022-11-28T15:00:30.166Z,99947.84
2022-11-28T15:03:15.971Z,99946.13
2022-11-28T15:05:48.928Z,99949.69
2022-11-28T15:08:51.628Z,99953.09
2022-11-28T15:11:38.388Z,99951.41
2022-11-28T15:14:12.889Z,99948.09
2022-11-28T15:16:49.922Z,99952.31
2022-11-28T15:19:26.699Z,99947.25
2022-11-28T15:21:56.004Z,99943.84
2022-11-28T15:24:30.468Z,99947.31
2022-11-28T15:27:17.564Z,99948.25
2022-11-28T15:29:54.741Z,99956.81
2022-11-28T15:32:23.208Z,99949.16
2022-11-28T15:35:00.775Z,99953.41
2022-11-28T15:37:32.034Z,99959.41
2022-11-28T15:40:02.275Z,99950.84
2022-11-28T15:42:32.918Z,99960.44
2022-11-28T15:45:05.531Z,99965.56
2022-11-28T15:47:34.062Z,99960.34
2022-11-28T15:50:06.014Z,99955.13
2022-11-28T15:52:33.667Z,99956.88
2022-11-28T15:55:03.158Z,99953.44
2022-11-28T15:57:32.588Z,99962.03
2022-11-28T16:00:03.059Z,99966.31
2022-11-28T16:02:42.028Z,99959.47
2022-11-28T16:05:21.501Z,99956.06
2022-11-28T16:07:51.805Z,99959.47
2022-11-28T16:10:24.542Z,99958.63
2022-11-28T16:12:59.283Z,99963.03
2022-11-28T16:15:28.221Z,99964.00
2022-11-28T16:17:56.651Z,99966.63
2022-11-28T16:20:28.526Z,99962.38
2022-11-28T16:23:02.546Z,99965.78
2022-11-28T16:25:31.217Z,99969.16
2022-11-28T16:27:59.745Z,99972.63
2022-11-28T16:30:39.622Z,99971.72
2022-11-28T16:33:35.222Z,99971.72
2022-11-28T16:36:13.173Z,99967.28
2022-11-28T16:38:41.152Z,99970.06
2022-11-28T16:41:16.216Z,99971.00
2022-11-28T16:43:44.052Z,99977.94
2022-11-28T16:46:20.989Z,99974.50
2022-11-28T16:48:50.346Z,99976.19
2022-11-28T16:51:40.653Z,99976.03
2022-11-28T16:54:29.787Z,99971.63
2022-11-28T16:57:08.065Z,99976.69
2022-11-28T16:59:35.897Z,99970.56
2022-11-28T17:02:04.165Z,99978.25
2022-11-28T17:04:33.590Z,99968.78
2022-11-28T17:07:05.256Z,99973.91
2022-11-28T17:09:34.129Z,99973.91
2022-11-28T17:12:05.186Z,99979.97
2022-11-28T17:14:33.214Z,99978.38
2022-11-28T17:17:01.347Z,99982.72
2022-11-28T17:19:29.314Z,99981.00
2022-11-28T17:21:59.897Z,99976.56
2022-11-28T17:24:34.074Z,99974.00
2022-11-28T17:27:02.185Z,99970.50
2022-11-28T17:29:30.110Z,99972.34
2022-11-28T17:31:58.954Z,99970.75
2022-11-28T17:34:30.810Z,99972.41
2022-11-28T17:36:58.828Z,99974.09
2022-11-28T17:39:27.602Z,99972.47
2022-11-28T17:41:57.876Z,99967.28
2022-11-28T17:44:29.261Z,99979.16
2022-11-28T17:46:58.433Z,99979.03
2022-11-28T17:49:26.215Z,99980.84
2022-11-28T17:51:55.732Z,99985.16
2022-11-28T17:54:26.311Z,99985.06
2022-11-28T17:56:54.658Z,99984.25
2022-11-28T17:59:26.950Z,99983.31
2022-11-28T18:01:55.385Z,99985.88
2022-11-28T18:04:26.211Z,99981.47
2022-11-28T18:06:54.008Z,99986.53
2022-11-28T18:09:21.912Z,99983.88
2022-11-28T18:11:49.844Z,99988.09
2022-11-28T18:14:19.900Z,99984.69
2022-11-28T18:16:49.996Z,99992.41
2022-11-28T18:19:17.944Z,99988.97
2022-11-28T18:21:45.629Z,99986.50
2022-11-28T18:24:13.829Z,99991.69
2022-11-28T18:26:42.469Z,99990.78
2022-11-28T18:29:10.678Z,99997.78
2022-11-28T18:31:39.098Z,99987.38
2022-11-28T18:34:09.624Z,99982.16
2022-11-28T18:36:39.407Z,99984.69
2022-11-28T18:39:10.195Z,99985.53
2022-11-28T18:41:39.798Z,99987.38
2022-11-28T18:44:08.576Z,99991.66
2022-11-28T18:46:36.635Z,99990.84
2022-11-28T18:49:04.711Z,99985.75
2022-11-28T18:51:35.860Z,99981.50
2022-11-28T18:54:05.386Z,99995.38
2022-11-28T18:56:35.042Z,99991.94
2022-11-28T18:59:03.069Z,99992.81
2022-11-28T19:01:32.171Z,99993.72
2022-11-28T19:04:02.549Z,99994.63
2022-11-28T19:06:31.819Z,99998.09
2022-11-28T19:09:02.302Z,99995.47
2022-11-28T19:11:30.315Z,99989.44
2022-11-28T19:13:59.212Z,99991.94
2022-11-28T19:16:28.994Z,99991.06
2022-11-28T19:18:57.219Z,99991.91
2022-11-28T19:21:26.352Z,99994.47
2022-11-28T19:23:55.713Z,99997.09
2022-11-28T19:26:26.789Z,99997.91
2022-11-28T19:28:55.408Z,99998.75
2022-11-28T19:31:26.932Z,99997.81
2022-11-28T19:34:00.908Z,99997.81
2022-11-28T19:36:32.072Z,99995.19
2022-11-28T19:38:59.929Z,100002.03
2022-11-28T19:41:30.932Z,99991.63
2022-11-28T19:43:59.021Z,100004.44
2022-11-28T19:46:35.112Z,100000.00
2022-11-28T19:49:05.611Z,99999.94
2022-11-28T19:51:35.140Z,100007.69
2022-11-28T19:54:04.172Z,100004.28
2022-11-28T19:56:35.706Z,100006.88
2022-11-28T19:59:03.463Z,100008.72
2022-11-28T20:01:31.568Z,100009.50
2022-11-28T20:03:59.889Z,100012.19
2022-11-28T20:06:30.148Z,100011.31
2022-11-28T20:09:01.148Z,100010.34
2022-11-28T20:11:32.101Z,100010.34
2022-11-28T20:14:03.699Z,100012.94
2022-11-28T20:16:32.503Z,100016.50
2022-11-28T20:19:01.512Z,100024.25
2022-11-28T20:21:30.148Z,100025.03
2022-11-28T20:24:04.237Z,100025.84
2022-11-28T20:26:35.237Z,100029.22
2022-11-28T20:29:06.324Z,100032.66
2022-11-28T20:31:37.919Z,100034.44
2022-11-28T20:34:06.326Z,100030.06
2022-11-28T20:36:35.680Z,100034.31
2022-11-28T20:39:04.472Z,100034.34
2022-11-28T20:41:32.347Z,100034.38
2022-11-28T20:44:01.125Z,100036.03
2022-11-28T20:46:31.502Z,100038.63
2022-11-28T20:49:00.859Z,100035.19
2022-11-28T20:51:31.215Z,100040.38
2022-11-28T20:54:00.430Z,100042.88
2022-11-28T20:56:30.396Z,100046.31
2022-11-28T20:59:00.621Z,100047.13
2022-11-28T21:01:33.357Z,100047.97
2022-11-28T21:04:02.148Z,100035.00
2022-11-28T21:06:30.816Z,100051.34
2022-11-28T21:08:58.744Z,100046.13
2022-11-28T21:14:15.446Z,100053.88
2022-11-28T21:16:44.686Z,100046.91
2022-11-28T21:19:12.559Z,100046.84
2022-11-28T21:21:42.766Z,100050.25
2022-11-28T21:24:13.385Z,100051.16
2022-11-28T21:26:46.603Z,100058.97
2022-11-28T21:29:18.091Z,100055.53
2022-11-28T21:31:47.535Z,100063.28
2022-11-28T21:34:16.756Z,100065.00
2022-11-28T21:36:44.824Z,100070.25
2022-11-28T21:39:14.949Z,100068.44
2022-11-28T21:41:42.972Z,100061.44
2022-11-28T21:44:10.898Z,100077.84
2022-11-28T21:46:38.906Z,100067.56
2022-11-28T21:49:08.587Z,100067.56
2022-11-28T21:51:40.215Z,100068.41
2022-11-28T21:54:08.350Z,100066.66
2022-11-28T21:56:36.148Z,100064.09
2022-11-28T21:59:05.709Z,100062.25
2022-11-28T22:01:34.303Z,100062.25
2022-11-28T22:04:03.253Z,100063.13
2022-11-28T22:06:33.855Z,100065.63
2022-11-28T22:09:08.811Z,100061.31
2022-11-28T22:11:38.595Z,100073.34
2022-11-28T22:14:06.737Z,100067.41
2022-11-28T22:16:34.668Z,100069.13
2022-11-28T22:19:04.077Z,100065.69
2022-11-28T22:24:21.867Z,100075.16
2022-11-28T22:26:49.751Z,100076.06
2022-11-28T22:29:18.741Z,100070.84
2022-11-28T22:31:47.547Z,100072.50
2022-11-28T22:34:15.360Z,100075.06
2022-11-28T22:36:44.634Z,100077.66
2022-11-28T22:39:12.417Z,100075.06
2022-11-28T22:41:40.216Z,100078.50
2022-11-28T22:44:11.510Z,100075.81
2022-11-28T22:46:39.608Z,100075.81
2022-11-28T22:49:10.797Z,100075.03
2022-11-28T22:51:39.909Z,100085.41
2022-11-28T22:54:13.441Z,100079.38
2022-11-28T22:56:41.993Z,100088.88
2022-11-28T22:59:13.877Z,100082.84
2022-11-28T23:01:43.434Z,100086.41
2022-11-28T23:04:11.848Z,100080.44
2022-11-28T23:06:40.480Z,100083.81
2022-11-28T23:09:12.934Z,100082.94
2022-11-28T23:11:41.506Z,100088.22
2022-11-28T23:14:11.265Z,100085.66
2022-11-28T23:16:41.166Z,100080.44
2022-11-28T23:19:11.783Z,100081.44
2022-11-28T23:21:42.362Z,100083.94
2022-11-28T23:24:14.019Z,100086.50
2022-11-28T23:26:42.589Z,100082.09
2022-11-28T23:29:10.736Z,100084.81
2022-11-28T23:31:40.800Z,100083.94
2022-11-28T23:34:09.897Z,100082.97
2022-11-28T23:36:42.537Z,100082.97
2022-11-28T23:39:15.030Z,100079.53
2022-11-28T23:41:43.292Z,100081.25
2022-11-28T23:44:12.405Z,100084.75
2022-11-28T23:46:40.466Z,100086.50
2022-11-28T23:49:08.868Z,100089.13
2022-11-28T23:51:37.040Z,100089.88
2022-11-28T23:54:04.968Z,100083.78
2022-11-28T23:56:36.070Z,100088.09
2022-11-28T23:59:05.564Z,100089.88
